Edzard Schulte — 2CVX9 — position and weather

sailwx.info

Track history (hours):
 
Tides and Currents Weather Stations Pressure Air Temp Water Temp Dewpoint Dewpoint Depression Visibility Wind Speed Wind Dir Waves Ship Positions

Edzard Schulte

Last reported at 2018-Jan-11 21:13 UTC. Time now 2018-Jan-20 19:18 UTC.
Position N 07°29' W 014°42'.
Warning: this ship's position is 8 days out of date.

Length 145 m; draft 9.1 m.

Type: Tanker. MMSI: 235076245.

Date/timePositionNaut miles runAvg speedWind from/ knotsBaromVisibWave heightAir tempDewpointWater temp
2018-Jan-11 21:13N 07°29' W 014°42'313.7
2018-Jan-11 21:00N 07°32' W 014°42'1113.7
2018-Jan-11 20:13N 07°43' W 014°42'1213.7
2018-Jan-11 19:21N 07°55' W 014°42'513.7
2018-Jan-11 19:00N 07°60' W 014°42'2512.8
2018-Jan-11 17:03N 08°22' W 014°30'313.3
2018-Jan-11 16:51N 08°24' W 014°29'2213.2
2018-Jan-11 15:14N 08°41' W 014°15'813.0
2018-Jan-11 14:38N 08°45' W 014°09'212.8
2018-Jan-11 14:30N 08°46' W 014°07'712.9
2018-Jan-11 13:56N 08°50' W 014°01'5 8.8
2018-Jan-11 13:23N 08°54' W 013°58'511.8
2018-Jan-11 13:00N 08°57' W 014°01'712.6
2018-Jan-11 12:28N 09°03' W 013°57'32 2.6
2018-Jan-11 00:20N 09°31' W 013°43'0 0.0
2018-Jan-10 23:59N 09°31' W 013°43'0 0.0
2018-Jan-10 23:29N 09°31' W 013°43'0 0.0
2018-Jan-10 22:59N 09°31' W 013°43'0 0.0
2018-Jan-10 22:29N 09°31' W 013°43'0 0.0
2018-Jan-10 21:59N 09°31' W 013°43'0 0.0
2018-Jan-10 21:29N 09°31' W 013°43'0 0.0
2018-Jan-10 20:59N 09°31' W 013°43'0 0.0
2018-Jan-10 20:29N 09°31' W 013°43'0 0.0
2018-Jan-10 19:59N 09°31' W 013°43'0 0.0
2018-Jan-10 19:29N 09°31' W 013°43'0 0.0
2018-Jan-10 18:59N 09°31' W 013°43'0 0.0
2018-Jan-10 18:29N 09°31' W 013°43'0 0.0
2018-Jan-10 17:59N 09°31' W 013°43'0 0.0
2018-Jan-10 17:26N 09°31' W 013°43'0 0.0
2018-Jan-10 16:59N 09°31' W 013°43'0 0.0
2018-Jan-10 16:29N 09°31' W 013°43'0 0.0
2018-Jan-10 15:59N 09°31' W 013°43'0 0.0
2018-Jan-10 15:29N 09°31' W 013°43'0 0.0
2018-Jan-10 14:59N 09°31' W 013°43'0 0.0
2018-Jan-10 14:29N 09°31' W 013°43'0 0.0
2018-Jan-10 13:59N 09°31' W 013°43'0 0.0
2018-Jan-10 13:29N 09°31' W 013°43'0 0.0
2018-Jan-10 12:59N 09°31' W 013°43'0 0.0
2018-Jan-10 12:29N 09°31' W 013°43'0 0.0
2018-Jan-10 11:59N 09°31' W 013°43'1 2.2
2018-Jan-10 11:30N 09°31' W 013°43'11 0.9
2018-Jan-09 23:24N 09°20' W 013°46'4 9.4
2018-Jan-09 23:01N 09°18' W 013°49'5 9.7
2018-Jan-09 22:31N 09°18' W 013°54'5 9.9
2018-Jan-09 22:00N 09°18' W 013°59'713.2
2018-Jan-09 21:30N 09°18' W 014°06'713.7
2018-Jan-09 21:01N 09°18' W 014°13'713.7
2018-Jan-09 20:31N 09°18' W 014°19'713.5
2018-Jan-09 20:00N 09°18' W 014°26'713.4
2018-Jan-09 19:31N 09°18' W 014°33'713.5
2018-Jan-09 19:01N 09°18' W 014°40'713.6
2018-Jan-09 18:31N 09°18' W 014°47'713.6
2018-Jan-09 18:01N 09°18' W 014°54'713.7
2018-Jan-09 17:31N 09°18' W 015°01'713.6
2018-Jan-09 17:00N 09°18' W 015°08'713.5
2018-Jan-09 16:31N 09°18' W 015°14'713.7
2018-Jan-09 16:01N 09°18' W 015°21'713.8
2018-Jan-09 15:31N 09°18' W 015°28'713.6
2018-Jan-09 15:01N 09°18' W 015°35'813.5
2018-Jan-09 14:23N 09°18' W 015°44'512.7
2018-Jan-09 14:00N 09°18' W 015°49'612.8
2018-Jan-09 13:30N 09°19' W 015°55'  
2018-Jan-05 19:36N 27°35' W 014°07'214.4
2018-Jan-05 19:30N 27°36' W 014°06'1814.1
2018-Jan-05 18:12N 27°51' W 013°53'313.9
2018-Jan-05 18:00N 27°53' W 013°51'713.8
2018-Jan-05 17:30N 27°58' W 013°46'714.0
2018-Jan-05 17:00N 28°04' W 013°42'714.1
2018-Jan-05 16:29N 28°09' W 013°36'713.9
2018-Jan-05 16:00N 28°14' W 013°32'813.7
2018-Jan-05 15:26N 28°21' W 013°26'5713.6
2018-Jan-05 11:12N 29°05' W 012°44'313.5
2018-Jan-05 11:00N 29°07' W 012°43'1113.4
2018-Jan-05 10:11N 29°16' W 012°36'213.6
2018-Jan-05 10:00N 29°18' W 012°34'713.8
2018-Jan-05 09:30N 29°23' W 012°29'52613.6
2018-Jan-03 18:52N 35°58' W 005°36'410.0
2018-Jan-03 18:31N 35°59' W 005°32'610.2
2018-Jan-03 17:53N 36°01' W 005°24'4 9.9
2018-Jan-03 17:30N 36°02' W 005°19'5 9.7
2018-Jan-03 17:01N 36°03' W 005°14'21711.9
2018-Jan-02 22:49N 37°16' W 000°59'414.0
2018-Jan-02 22:30N 37°19' W 000°55'2113.5
2018-Jan-02 20:59N 37°33' W 000°36'812.7
2018-Jan-02 20:23N 37°38' W 000°29'512.6
2018-Jan-02 19:58N 37°42' W 000°25'19412.5
2018-Jan-02 04:28N 39°59' E 002°31'612.5
2018-Jan-02 03:59N 40°03' E 002°37'612.1
2018-Jan-02 03:29N 40°07' E 002°44'911.5
2018-Jan-02 02:40N 40°12' E 002°54'211.2
2018-Jan-02 02:30N 40°13' E 002°56'  
Track history (hours):
 
Tides and Currents Weather Stations Pressure Air Temp Water Temp Dewpoint Dewpoint Depression Visibility Wind Speed Wind Dir Waves Ship Positions

Edzard Schulte

Last reported at 2018-Jan-11 21:13 UTC. Time now 2018-Jan-20 19:18 UTC.
Position N 07°29' W 014°42'.
Warning: this ship's position is 8 days out of date.

Length 145 m; draft 9.1 m.

Type: Tanker. MMSI: 235076245.

Date/timePositionNaut miles runAvg speedWind from/ knotsBaromVisibWave heightAir tempDewpointWater temp
2018-Jan-11 21:13N 07°29' W 014°42'313.7
2018-Jan-11 21:00N 07°32' W 014°42'1113.7
2018-Jan-11 20:13N 07°43' W 014°42'1213.7
2018-Jan-11 19:21N 07°55' W 014°42'513.7
2018-Jan-11 19:00N 07°60' W 014°42'2512.8
2018-Jan-11 17:03N 08°22' W 014°30'313.3
2018-Jan-11 16:51N 08°24' W 014°29'2213.2
2018-Jan-11 15:14N 08°41' W 014°15'813.0
2018-Jan-11 14:38N 08°45' W 014°09'212.8
2018-Jan-11 14:30N 08°46' W 014°07'712.9
2018-Jan-11 13:56N 08°50' W 014°01'5 8.8
2018-Jan-11 13:23N 08°54' W 013°58'511.8
2018-Jan-11 13:00N 08°57' W 014°01'712.6
2018-Jan-11 12:28N 09°03' W 013°57'32 2.6
2018-Jan-11 00:20N 09°31' W 013°43'0 0.0
2018-Jan-10 23:59N 09°31' W 013°43'0 0.0
2018-Jan-10 23:29N 09°31' W 013°43'0 0.0
2018-Jan-10 22:59N 09°31' W 013°43'0 0.0
2018-Jan-10 22:29N 09°31' W 013°43'0 0.0
2018-Jan-10 21:59N 09°31' W 013°43'0 0.0
2018-Jan-10 21:29N 09°31' W 013°43'0 0.0
2018-Jan-10 20:59N 09°31' W 013°43'0 0.0
2018-Jan-10 20:29N 09°31' W 013°43'0 0.0
2018-Jan-10 19:59N 09°31' W 013°43'0 0.0
2018-Jan-10 19:29N 09°31' W 013°43'0 0.0
2018-Jan-10 18:59N 09°31' W 013°43'0 0.0
2018-Jan-10 18:29N 09°31' W 013°43'0 0.0
2018-Jan-10 17:59N 09°31' W 013°43'0 0.0
2018-Jan-10 17:26N 09°31' W 013°43'0 0.0
2018-Jan-10 16:59N 09°31' W 013°43'0 0.0
2018-Jan-10 16:29N 09°31' W 013°43'0 0.0
2018-Jan-10 15:59N 09°31' W 013°43'0 0.0
2018-Jan-10 15:29N 09°31' W 013°43'0 0.0
2018-Jan-10 14:59N 09°31' W 013°43'0 0.0
2018-Jan-10 14:29N 09°31' W 013°43'0 0.0
2018-Jan-10 13:59N 09°31' W 013°43'0 0.0
2018-Jan-10 13:29N 09°31' W 013°43'0 0.0
2018-Jan-10 12:59N 09°31' W 013°43'0 0.0
2018-Jan-10 12:29N 09°31' W 013°43'0 0.0
2018-Jan-10 11:59N 09°31' W 013°43'1 2.2
2018-Jan-10 11:30N 09°31' W 013°43'11 0.9
2018-Jan-09 23:24N 09°20' W 013°46'4 9.4
2018-Jan-09 23:01N 09°18' W 013°49'5 9.7
2018-Jan-09 22:31N 09°18' W 013°54'5 9.9
2018-Jan-09 22:00N 09°18' W 013°59'713.2
2018-Jan-09 21:30N 09°18' W 014°06'713.7
2018-Jan-09 21:01N 09°18' W 014°13'713.7
2018-Jan-09 20:31N 09°18' W 014°19'713.5
2018-Jan-09 20:00N 09°18' W 014°26'713.4
2018-Jan-09 19:31N 09°18' W 014°33'713.5
2018-Jan-09 19:01N 09°18' W 014°40'713.6
2018-Jan-09 18:31N 09°18' W 014°47'713.6
2018-Jan-09 18:01N 09°18' W 014°54'713.7
2018-Jan-09 17:31N 09°18' W 015°01'713.6
2018-Jan-09 17:00N 09°18' W 015°08'713.5
2018-Jan-09 16:31N 09°18' W 015°14'713.7
2018-Jan-09 16:01N 09°18' W 015°21'713.8
2018-Jan-09 15:31N 09°18' W 015°28'713.6
2018-Jan-09 15:01N 09°18' W 015°35'813.5
2018-Jan-09 14:23N 09°18' W 015°44'512.7
2018-Jan-09 14:00N 09°18' W 015°49'612.8
2018-Jan-09 13:30N 09°19' W 015°55'  
2018-Jan-05 19:36N 27°35' W 014°07'214.4
2018-Jan-05 19:30N 27°36' W 014°06'1814.1
2018-Jan-05 18:12N 27°51' W 013°53'313.9
2018-Jan-05 18:00N 27°53' W 013°51'713.8
2018-Jan-05 17:30N 27°58' W 013°46'714.0
2018-Jan-05 17:00N 28°04' W 013°42'714.1
2018-Jan-05 16:29N 28°09' W 013°36'713.9
2018-Jan-05 16:00N 28°14' W 013°32'813.7
2018-Jan-05 15:26N 28°21' W 013°26'5713.6
2018-Jan-05 11:12N 29°05' W 012°44'313.5
2018-Jan-05 11:00N 29°07' W 012°43'1113.4
2018-Jan-05 10:11N 29°16' W 012°36'213.6
2018-Jan-05 10:00N 29°18' W 012°34'713.8
2018-Jan-05 09:30N 29°23' W 012°29'52613.6
2018-Jan-03 18:52N 35°58' W 005°36'410.0
2018-Jan-03 18:31N 35°59' W 005°32'610.2
2018-Jan-03 17:53N 36°01' W 005°24'4 9.9
2018-Jan-03 17:30N 36°02' W 005°19'5 9.7
2018-Jan-03 17:01N 36°03' W 005°14'21711.9
2018-Jan-02 22:49N 37°16' W 000°59'414.0
2018-Jan-02 22:30N 37°19' W 000°55'2113.5
2018-Jan-02 20:59N 37°33' W 000°36'812.7
2018-Jan-02 20:23N 37°38' W 000°29'512.6
2018-Jan-02 19:58N 37°42' W 000°25'19412.5
2018-Jan-02 04:28N 39°59' E 002°31'612.5
2018-Jan-02 03:59N 40°03' E 002°37'612.1
2018-Jan-02 03:29N 40°07' E 002°44'911.5
2018-Jan-02 02:40N 40°12' E 002°54'211.2
2018-Jan-02 02:30N 40°13' E 002°56'  

Dump ship's entire track history